Time;durP1;ratioP1;P1;durP2;ratioP2;P2;SDS_P1;SDS_P2;PMS_P1;PMS_P2;Temp;Humidity;BMP_temperature;BMP_pressure;BME280_temperature;BME280_humidity;BME280_pressure;Samples;Min_cycle;Max_cycle;Signal;HPM_P1;HPM_P2
2021/06/30 00:01:14;;;;;;;0.20;0.20;;;16.90;99.90;;;;;;5065770;28;20653;-81
2021/06/30 00:03:40;;;;;;;0.20;0.20;;;16.90;99.90;;;;;;5077307;28;20587;-81
2021/06/30 00:06:06;;;;;;;0.20;0.20;;;16.80;99.90;;;;;;5061876;28;20302;-80
2021/06/30 00:08:32;;;;;;;0.40;0.40;;;16.40;99.90;;;;;;5079675;28;20647;-80
2021/06/30 00:10:58;;;;;;;0.20;0.20;;;16.20;99.90;;;;;;5077212;28;20192;-80
2021/06/30 00:13:24;;;;;;;0.30;0.30;;;16.00;99.90;;;;;;5075482;28;20235;-80
2021/06/30 00:15:51;;;;;;;0.10;0.10;;;16.00;99.90;;;;;;5088361;28;20183;-81
2021/06/30 00:18:18;;;;;;;0.20;0.20;;;15.90;99.90;;;;;;5061286;28;20190;-80
2021/06/30 00:20:44;;;;;;;0.33;0.10;;;15.90;99.90;;;;;;5059670;28;20256;-81
2021/06/30 00:23:10;;;;;;;2.83;0.30;;;15.90;99.90;;;;;;5076952;28;20728;-79
2021/06/30 00:25:36;;;;;;;0.20;0.20;;;15.80;99.90;;;;;;5076626;28;20215;-81
2021/06/30 00:28:02;;;;;;;0.30;0.30;;;15.90;99.90;;;;;;5061634;28;20255;-81
2021/06/30 00:30:28;;;;;;;1.37;0.47;;;16.10;99.90;;;;;;5070699;28;20194;-79
2021/06/30 00:32:53;;;;;;;0.30;0.20;;;16.30;99.90;;;;;;5076712;28;20261;-80
2021/06/30 00:35:19;;;;;;;0.23;0.23;;;16.50;99.90;;;;;;5078103;28;20199;-80
2021/06/30 00:37:45;;;;;;;0.10;0.10;;;16.60;99.90;;;;;;5097274;28;20248;-80
2021/06/30 00:40:11;;;;;;;0.20;0.20;;;16.60;99.90;;;;;;5068239;28;20243;-80
2021/06/30 00:42:37;;;;;;;0.30;0.10;;;16.70;99.90;;;;;;5075968;28;20209;-81
2021/06/30 00:45:04;;;;;;;0.40;0.40;;;16.70;99.90;;;;;;5080076;28;20996;-80
2021/06/30 00:47:30;;;;;;;0.20;0.20;;;16.70;99.90;;;;;;5080577;28;20214;-80
2021/06/30 00:49:56;;;;;;;0.33;0.33;;;16.60;99.90;;;;;;5066235;28;20674;-81
2021/06/30 00:52:22;;;;;;;0.30;0.30;;;16.50;99.90;;;;;;5075024;28;20184;-81
2021/06/30 00:54:47;;;;;;;0.10;0.10;;;16.10;99.90;;;;;;5076817;28;20667;-81
2021/06/30 00:57:15;;;;;;;0.20;0.20;;;16.00;99.90;;;;;;5074175;28;20287;-81
2021/06/30 00:59:41;;;;;;;0.10;0.10;;;16.10;99.90;;;;;;5075294;28;20575;-79
2021/06/30 01:02:06;;;;;;;0.27;0.27;;;16.40;99.90;;;;;;5063494;28;20188;-81
2021/06/30 01:04:32;;;;;;;0.33;0.33;;;16.60;99.90;;;;;;5075217;28;20218;-81
2021/06/30 01:06:58;;;;;;;0.10;0.10;;;16.80;99.90;;;;;;5066214;28;20846;-81
2021/06/30 01:09:23;;;;;;;0.20;0.20;;;16.80;99.90;;;;;;5085359;28;20263;-80
2021/06/30 01:11:49;;;;;;;0.20;0.20;;;17.00;99.90;;;;;;5076329;28;20271;-81
2021/06/30 01:14:34;;;;;;;0.23;0.23;;;16.90;99.90;;;;;;5061299;28;20213;-79
2021/06/30 01:17:01;;;;;;;0.17;0.17;;;16.60;99.90;;;;;;5077243;28;20270;-80
2021/06/30 01:19:27;;;;;;;0.13;0.13;;;16.70;99.90;;;;;;5076745;28;20196;-81
2021/06/30 01:21:54;;;;;;;0.40;0.30;;;16.70;99.90;;;;;;5077647;28;20184;-79
2021/06/30 01:24:21;;;;;;;0.30;0.30;;;16.70;99.90;;;;;;5077756;28;20215;-80
2021/06/30 01:26:48;;;;;;;0.10;0.10;;;16.70;99.90;;;;;;5059240;28;20225;-81
2021/06/30 01:29:14;;;;;;;0.20;0.20;;;16.70;99.90;;;;;;5058715;28;20189;-80
2021/06/30 01:31:40;;;;;;;0.20;0.20;;;16.70;99.90;;;;;;5059988;28;20553;-81
2021/06/30 01:34:06;;;;;;;0.10;0.10;;;16.70;99.90;;;;;;5080456;28;20249;-82
2021/06/30 01:36:43;;;;;;;0.20;0.20;;;16.70;99.90;;;;;;5071089;28;20232;-83
2021/06/30 01:39:09;;;;;;;0.20;0.20;;;16.70;99.90;;;;;;5085530;28;20195;-81
2021/06/30 01:41:34;;;;;;;0.47;0.30;;;16.70;99.90;;;;;;5049092;28;20677;-81
2021/06/30 01:44:00;;;;;;;0.20;0.20;;;16.70;99.90;;;;;;5079773;28;20220;-81
2021/06/30 01:46:26;;;;;;;0.60;0.30;;;16.80;99.90;;;;;;5066029;28;20266;-81
2021/06/30 01:48:51;;;;;;;0.13;0.13;;;17.00;99.90;;;;;;5066977;28;20215;-81
2021/06/30 01:51:17;;;;;;;0.20;0.20;;;17.00;99.90;;;;;;5065667;28;20613;-81
2021/06/30 01:53:42;;;;;;;0.20;0.20;;;17.10;99.90;;;;;;5064058;28;20237;-81
2021/06/30 01:56:08;;;;;;;0.30;0.30;;;17.00;99.90;;;;;;5075324;28;20267;-81
2021/06/30 01:58:33;;;;;;;0.27;0.27;;;17.00;99.90;;;;;;5074653;28;20188;-79
2021/06/30 02:00:59;;;;;;;0.10;0.10;;;16.90;99.90;;;;;;5059560;28;20620;-81
2021/06/30 02:03:25;;;;;;;0.20;0.20;;;17.00;99.90;;;;;;5058085;28;20300;-81
2021/06/30 02:05:50;;;;;;;0.10;0.10;;;17.10;99.90;;;;;;5082019;28;20216;-81
2021/06/30 02:08:17;;;;;;;0.87;0.53;;;17.20;99.90;;;;;;5057576;28;20269;-81
2021/06/30 02:10:43;;;;;;;0.20;0.20;;;17.20;99.90;;;;;;5057652;28;20300;-81
2021/06/30 02:13:09;;;;;;;0.40;0.40;;;17.30;99.90;;;;;;5065751;28;20701;-81
2021/06/30 02:15:38;;;;;;;0.37;0.37;;;17.30;99.90;;;;;;5060935;28;20184;-81
2021/06/30 02:18:05;;;;;;;0.47;0.47;;;17.20;99.90;;;;;;5063177;28;20191;-81
2021/06/30 02:20:31;;;;;;;0.33;0.33;;;17.10;99.90;;;;;;5074028;28;20177;-80
2021/06/30 02:22:57;;;;;;;0.30;0.20;;;17.00;99.90;;;;;;5061690;28;20672;-80
2021/06/30 02:25:26;;;;;;;0.20;0.20;;;16.90;99.90;;;;;;5074820;28;20189;-81
2021/06/30 02:27:52;;;;;;;0.40;0.40;;;16.80;99.90;;;;;;5063462;28;20205;-81
2021/06/30 02:30:24;;;;;;;0.30;0.30;;;16.80;99.90;;;;;;5070054;28;20188;-81
2021/06/30 02:32:49;;;;;;;0.20;0.20;;;16.70;99.90;;;;;;5054411;28;20189;-81
2021/06/30 02:35:18;;;;;;;0.20;0.20;;;16.60;99.90;;;;;;5068769;28;20185;-81
2021/06/30 02:37:45;;;;;;;0.20;0.20;;;16.60;99.90;;;;;;5057066;28;20218;-81
2021/06/30 02:40:14;;;;;;;2.03;0.80;;;16.40;99.90;;;;;;5059823;28;20687;-81
2021/06/30 02:42:41;;;;;;;1.00;0.40;;;16.50;99.90;;;;;;5075077;28;20196;-80
2021/06/30 02:45:10;;;;;;;0.20;0.20;;;16.50;99.90;;;;;;5071530;28;20230;-79
2021/06/30 02:47:37;;;;;;;0.20;0.20;;;16.50;99.90;;;;;;5058305;28;20214;-81
2021/06/30 02:50:09;;;;;;;0.20;0.20;;;16.50;99.90;;;;;;5074173;28;20199;-81
2021/06/30 02:52:34;;;;;;;0.43;0.43;;;16.40;99.90;;;;;;5059998;28;20196;-81
2021/06/30 02:55:00;;;;;;;0.53;0.50;;;16.50;99.90;;;;;;5065049;28;20601;-81
2021/06/30 02:57:26;;;;;;;0.40;0.40;;;16.50;99.90;;;;;;5056881;28;20449;-81
2021/06/30 02:59:52;;;;;;;0.33;0.27;;;16.60;99.90;;;;;;5073645;28;20261;-81
2021/06/30 03:02:17;;;;;;;0.87;0.20;;;16.60;99.90;;;;;;5057166;28;20614;-81
2021/06/30 03:04:43;;;;;;;3.60;0.40;;;16.60;99.90;;;;;;5067781;28;20229;-80
2021/06/30 03:07:09;;;;;;;0.20;0.20;;;16.70;99.90;;;;;;5067467;28;20215;-81
2021/06/30 03:09:34;;;;;;;0.20;0.20;;;16.80;99.90;;;;;;5074990;28;20229;-81
2021/06/30 03:12:01;;;;;;;0.10;0.10;;;16.70;99.90;;;;;;5075380;28;20191;-80
2021/06/30 03:14:28;;;;;;;0.40;0.40;;;16.70;99.90;;;;;;5073486;28;20690;-81
2021/06/30 03:16:54;;;;;;;0.30;0.30;;;16.60;99.90;;;;;;5065947;28;20642;-80
2021/06/30 03:19:19;;;;;;;0.20;0.20;;;16.50;99.90;;;;;;5059516;28;20196;-81
2021/06/30 03:21:45;;;;;;;0.13;0.13;;;16.40;99.90;;;;;;5069157;28;20187;-82
2021/06/30 03:24:11;;;;;;;0.23;0.23;;;16.30;99.90;;;;;;5055615;28;20214;-82
2021/06/30 03:26:37;;;;;;;0.20;0.20;;;16.20;99.90;;;;;;5066324;28;20225;-82
2021/06/30 03:29:03;;;;;;;0.40;0.40;;;16.20;99.90;;;;;;5052162;28;20191;-82
2021/06/30 03:31:29;;;;;;;0.20;0.20;;;16.30;99.90;;;;;;5073492;28;20206;-81
2021/06/30 03:33:55;;;;;;;0.20;0.20;;;16.30;99.90;;;;;;5069500;28;20210;-82
2021/06/30 03:36:21;;;;;;;0.20;0.20;;;16.20;99.90;;;;;;5069680;28;20198;-82
2021/06/30 03:38:46;;;;;;;0.30;0.30;;;16.20;99.90;;;;;;5051498;28;20221;-81
2021/06/30 03:41:12;;;;;;;0.67;0.67;;;16.10;99.90;;;;;;5050601;28;20191;-81
2021/06/30 03:43:38;;;;;;;0.20;0.20;;;16.10;99.90;;;;;;5070748;28;20662;-82
2021/06/30 03:46:03;;;;;;;0.63;0.50;;;16.30;99.90;;;;;;5063968;28;20685;-82
2021/06/30 03:48:29;;;;;;;0.30;0.23;;;16.60;99.90;;;;;;5051812;28;20218;-82
2021/06/30 03:50:54;;;;;;;0.30;0.30;;;16.70;99.90;;;;;;5050446;28;20185;-81
2021/06/30 03:53:20;;;;;;;0.20;0.20;;;16.70;99.90;;;;;;5056348;28;20225;-83
2021/06/30 03:55:46;;;;;;;0.20;0.20;;;16.80;99.90;;;;;;5071212;28;20254;-82
2021/06/30 03:58:12;;;;;;;0.10;0.10;;;16.80;99.90;;;;;;5069208;28;20277;-82
2021/06/30 04:00:37;;;;;;;0.30;0.30;;;16.90;99.90;;;;;;5069789;28;20179;-81
2021/06/30 04:03:03;;;;;;;0.27;0.27;;;16.80;99.90;;;;;;5051704;28;20202;-82
2021/06/30 04:05:29;;;;;;;0.70;0.30;;;16.80;99.90;;;;;;5052567;28;20188;-82
2021/06/30 04:07:54;;;;;;;0.20;0.20;;;16.90;99.90;;;;;;5070019;28;20220;-82
2021/06/30 04:10:20;;;;;;;0.17;0.17;;;16.90;99.90;;;;;;5053123;28;20690;-81
2021/06/30 04:12:46;;;;;;;0.40;0.40;;;17.00;99.90;;;;;;5051453;28;20185;-81
2021/06/30 04:15:12;;;;;;;0.20;0.20;;;16.90;99.90;;;;;;5053056;28;20277;-82
2021/06/30 04:17:38;;;;;;;0.40;0.40;;;17.10;99.90;;;;;;5051442;28;20188;-85
2021/06/30 04:20:06;;;;;;;0.30;0.30;;;17.20;99.90;;;;;;5046488;28;20643;-84
2021/06/30 04:22:31;;;;;;;0.10;0.10;;;17.10;99.90;;;;;;5046110;28;20200;-84
2021/06/30 04:24:57;;;;;;;0.30;0.30;;;17.20;99.90;;;;;;5067128;28;20219;-83
2021/06/30 04:27:23;;;;;;;0.27;0.20;;;17.10;99.90;;;;;;5045290;28;20238;-84
2021/06/30 04:29:48;;;;;;;0.27;0.27;;;17.10;99.90;;;;;;5050897;28;20238;-84
2021/06/30 04:32:14;;;;;;;0.20;0.20;;;17.10;99.90;;;;;;5050374;28;20253;-84
2021/06/30 04:34:40;;;;;;;0.20;0.20;;;17.10;99.90;;;;;;5069776;28;20211;-83
2021/06/30 04:37:06;;;;;;;2.90;0.40;;;17.10;99.90;;;;;;5052926;28;20301;-83
2021/06/30 04:39:31;;;;;;;0.10;0.10;;;17.20;99.90;;;;;;5073146;28;20191;-83
2021/06/30 04:41:57;;;;;;;0.10;0.10;;;17.20;99.90;;;;;;5056887;28;20192;-81
2021/06/30 04:44:23;;;;;;;0.20;0.20;;;17.30;99.90;;;;;;5053078;28;20219;-84
2021/06/30 04:46:48;;;;;;;0.30;0.30;;;17.30;99.90;;;;;;5054790;28;20654;-81
2021/06/30 04:49:14;;;;;;;0.53;0.40;;;17.30;99.90;;;;;;5074349;28;20185;-82
2021/06/30 04:51:41;;;;;;;0.30;0.30;;;17.30;99.90;;;;;;5070864;28;20188;-82
2021/06/30 04:54:06;;;;;;;0.50;0.50;;;17.40;99.90;;;;;;5066520;28;20222;-78
2021/06/30 04:56:39;;;;;;;0.23;0.23;;;17.70;99.90;;;;;;5055829;28;20192;-81
2021/06/30 04:59:06;;;;;;;0.63;0.57;;;17.80;99.90;;;;;;5072658;28;20192;-82
2021/06/30 05:01:32;;;;;;;0.50;0.40;;;18.10;99.90;;;;;;5053548;28;20259;-82
2021/06/30 05:03:58;;;;;;;0.30;0.30;;;18.30;99.90;;;;;;5048836;28;20593;-83
2021/06/30 05:06:23;;;;;;;0.40;0.40;;;18.20;99.90;;;;;;5054597;28;20939;-83
2021/06/30 05:08:49;;;;;;;0.77;0.77;;;18.10;99.90;;;;;;5059879;28;20245;-81
2021/06/30 05:11:15;;;;;;;0.30;0.30;;;17.90;99.90;;;;;;5058708;28;20317;-81
2021/06/30 05:13:40;;;;;;;0.43;0.43;;;17.70;99.90;;;;;;5076946;28;20239;-80
2021/06/30 05:16:06;;;;;;;0.30;0.30;;;17.60;99.90;;;;;;5059423;28;20192;-80
2021/06/30 05:18:32;;;;;;;0.30;0.30;;;17.50;99.90;;;;;;5071016;28;20821;-81
2021/06/30 05:20:58;;;;;;;0.33;0.33;;;17.50;99.90;;;;;;5078466;28;20196;-80
2021/06/30 05:23:23;;;;;;;0.50;0.47;;;17.20;99.90;;;;;;5090661;28;20211;-80
2021/06/30 05:25:49;;;;;;;0.33;0.30;;;17.30;99.90;;;;;;5065872;28;20196;-80
2021/06/30 05:28:15;;;;;;;0.30;0.30;;;17.30;99.90;;;;;;5088745;28;20211;-79
2021/06/30 05:30:41;;;;;;;0.27;0.27;;;17.40;99.90;;;;;;5067062;28;20202;-80
2021/06/30 05:33:06;;;;;;;0.40;0.40;;;17.50;99.90;;;;;;5064292;28;20655;-81
2021/06/30 05:35:32;;;;;;;0.20;0.20;;;17.60;99.90;;;;;;5080426;28;20538;-80
2021/06/30 05:37:58;;;;;;;0.20;0.20;;;17.80;99.90;;;;;;5080797;28;20231;-81
2021/06/30 05:40:24;;;;;;;1.43;1.33;;;18.10;99.90;;;;;;5078674;28;20212;-81
2021/06/30 05:42:49;;;;;;;0.20;0.20;;;18.20;99.90;;;;;;5058234;28;20679;-81
2021/06/30 05:45:16;;;;;;;0.20;0.20;;;18.40;99.90;;;;;;5059417;28;20704;-80
2021/06/30 05:47:45;;;;;;;0.30;0.30;;;18.30;99.90;;;;;;5078277;28;20741;-81
2021/06/30 05:50:13;;;;;;;0.30;0.30;;;18.30;99.90;;;;;;5073517;28;20287;-80
2021/06/30 05:52:39;;;;;;;0.40;0.40;;;18.30;99.90;;;;;;5061537;28;20199;-81
2021/06/30 05:55:07;;;;;;;0.30;0.30;;;18.30;99.90;;;;;;5063293;28;20395;-79
2021/06/30 05:57:33;;;;;;;0.80;0.50;;;18.40;99.90;;;;;;5081946;28;20192;-81
2021/06/30 05:59:59;;;;;;;1.70;0.40;;;18.60;99.90;;;;;;5059544;28;20288;-81
2021/06/30 06:02:24;;;;;;;0.20;0.20;;;18.50;99.90;;;;;;5077547;28;20272;-81
2021/06/30 06:04:50;;;;;;;0.87;0.30;;;18.50;99.90;;;;;;5077274;28;20236;-79
2021/06/30 06:07:16;;;;;;;0.30;0.30;;;18.50;99.90;;;;;;5051795;28;20210;-81
2021/06/30 06:09:41;;;;;;;0.20;0.20;;;18.60;99.90;;;;;;5069780;28;20246;-81
2021/06/30 06:12:07;;;;;;;0.20;0.20;;;18.60;99.90;;;;;;5056693;28;20192;-81
2021/06/30 06:14:33;;;;;;;0.13;0.13;;;18.70;99.90;;;;;;5078798;28;20286;-81
2021/06/30 06:16:59;;;;;;;0.40;0.20;;;18.90;99.90;;;;;;5072945;28;20190;-81
2021/06/30 06:19:26;;;;;;;0.40;0.40;;;19.00;99.90;;;;;;5057912;28;20246;-81
2021/06/30 06:21:52;;;;;;;0.30;0.30;;;19.20;99.90;;;;;;5076242;28;20696;-81
2021/06/30 06:24:18;;;;;;;0.63;0.33;;;19.40;99.90;;;;;;5058053;28;20291;-83
2021/06/30 06:26:44;;;;;;;0.27;0.27;;;19.50;99.90;;;;;;5053531;28;20220;-83
2021/06/30 06:29:10;;;;;;;0.47;0.47;;;19.70;99.90;;;;;;5070911;28;20244;-83
2021/06/30 06:31:37;;;;;;;0.47;0.47;;;19.60;99.90;;;;;;5055766;28;20669;-80
2021/06/30 06:34:02;;;;;;;0.20;0.20;;;19.50;99.90;;;;;;5055898;28;21217;-81
2021/06/30 06:36:28;;;;;;;0.37;0.37;;;19.40;99.90;;;;;;5077297;28;20196;-81
2021/06/30 06:38:54;;;;;;;0.30;0.30;;;19.40;99.90;;;;;;5057590;28;20274;-81
2021/06/30 06:41:20;;;;;;;0.40;0.30;;;19.40;99.90;;;;;;5073442;28;20193;-80
2021/06/30 06:43:46;;;;;;;0.30;0.30;;;19.60;99.90;;;;;;5054699;28;20212;-81
2021/06/30 06:46:12;;;;;;;0.23;0.20;;;19.50;99.90;;;;;;5055949;28;20215;-78
2021/06/30 06:48:37;;;;;;;0.80;0.40;;;19.50;99.90;;;;;;5072763;28;20659;-81
2021/06/30 06:51:04;;;;;;;0.30;0.23;;;19.50;99.90;;;;;;5071840;28;20188;-81
2021/06/30 06:53:29;;;;;;;0.30;0.30;;;19.50;99.90;;;;;;5053814;28;20221;-80
2021/06/30 06:55:58;;;;;;;0.50;0.40;;;19.40;99.90;;;;;;5070597;28;20203;-79
2021/06/30 06:58:23;;;;;;;0.40;0.40;;;19.40;99.90;;;;;;5056463;28;20187;-79
2021/06/30 07:00:49;;;;;;;0.57;0.57;;;19.20;99.90;;;;;;5070810;28;20178;-80
2021/06/30 07:03:14;;;;;;;0.30;0.30;;;19.20;99.90;;;;;;5056671;28;20226;-79
2021/06/30 07:05:40;;;;;;;0.30;0.30;;;19.20;99.90;;;;;;5071490;28;20180;-80
2021/06/30 07:08:06;;;;;;;0.40;0.40;;;19.30;99.90;;;;;;5070477;28;20660;-80
2021/06/30 07:10:32;;;;;;;0.30;0.30;;;19.40;99.90;;;;;;5075554;28;20204;-78
2021/06/30 07:12:59;;;;;;;0.30;0.30;;;19.40;99.90;;;;;;5076968;28;20254;-80
2021/06/30 07:15:24;;;;;;;0.27;0.27;;;19.70;99.90;;;;;;5076438;28;20173;-80
2021/06/30 07:17:50;;;;;;;0.10;0.10;;;19.70;99.90;;;;;;5075843;28;20264;-80
2021/06/30 07:20:16;;;;;;;0.30;0.30;;;19.90;99.90;;;;;;5076335;28;20568;-80
2021/06/30 07:22:41;;;;;;;0.20;0.20;;;20.00;99.90;;;;;;5074416;28;20564;-80
2021/06/30 07:25:07;;;;;;;0.70;0.70;;;20.10;99.90;;;;;;5050005;28;20255;-80
2021/06/30 07:27:33;;;;;;;0.20;0.20;;;20.20;99.90;;;;;;5074418;28;20208;-80
2021/06/30 07:29:59;;;;;;;0.20;0.20;;;20.40;99.90;;;;;;5075841;28;20212;-80
2021/06/30 07:32:24;;;;;;;0.50;0.50;;;20.80;99.90;;;;;;5078992;28;20222;-80
2021/06/30 07:34:50;;;;;;;0.33;0.33;;;20.90;99.90;;;;;;5077641;28;20210;-80
2021/06/30 07:37:15;;;;;;;0.40;0.40;;;20.90;99.90;;;;;;5076990;28;20589;-79
2021/06/30 07:39:41;;;;;;;0.10;0.10;;;21.00;99.90;;;;;;5074638;28;20188;-80
2021/06/30 07:42:07;;;;;;;0.30;0.30;;;21.30;99.90;;;;;;5076178;28;20672;-81
2021/06/30 07:44:32;;;;;;;0.30;0.30;;;21.70;99.90;;;;;;5069155;28;20202;-81
2021/06/30 07:46:58;;;;;;;0.47;0.40;;;21.50;99.90;;;;;;5067418;28;20226;-80
2021/06/30 07:49:24;;;;;;;0.30;0.30;;;21.40;99.90;;;;;;5069606;28;20550;-80
2021/06/30 07:51:50;;;;;;;0.47;0.47;;;21.50;99.90;;;;;;5068154;28;20667;-82
2021/06/30 07:54:17;;;;;;;0.30;0.30;;;21.50;99.90;;;;;;5071052;28;20219;-81
2021/06/30 07:56:43;;;;;;;0.73;0.43;;;21.70;99.90;;;;;;5071067;28;20240;-81
2021/06/30 07:59:10;;;;;;;0.40;0.40;;;21.50;99.90;;;;;;5056154;28;20635;-81
2021/06/30 08:01:37;;;;;;;0.93;0.50;;;21.50;99.90;;;;;;5047439;28;20208;-81
2021/06/30 08:04:03;;;;;;;0.40;0.40;;;21.40;99.90;;;;;;5072870;28;20640;-81
2021/06/30 08:06:29;;;;;;;0.53;0.53;;;21.00;99.90;;;;;;5073822;28;20570;-81
2021/06/30 08:08:55;;;;;;;0.50;0.50;;;20.80;99.90;;;;;;5073812;28;20174;-83
2021/06/30 08:11:24;;;;;;;0.40;0.40;;;20.70;99.90;;;;;;5050751;28;20227;-83
2021/06/30 08:13:54;;;;;;;0.20;0.20;;;20.50;99.90;;;;;;5052511;28;20212;-81
2021/06/30 08:16:21;;;;;;;0.50;0.50;;;20.40;99.90;;;;;;5070883;28;20184;-81
2021/06/30 08:18:47;;;;;;;0.50;0.50;;;20.10;99.90;;;;;;5052995;28;20189;-80
2021/06/30 08:21:14;;;;;;;0.57;0.57;;;19.70;99.90;;;;;;5071365;28;20193;-79
2021/06/30 08:23:40;;;;;;;0.53;0.53;;;19.50;99.90;;;;;;5054148;28;20257;-81
2021/06/30 08:26:08;;;;;;;0.37;0.37;;;19.40;99.90;;;;;;5054864;28;20695;-81
2021/06/30 08:28:37;;;;;;;0.30;0.30;;;19.50;99.90;;;;;;5073226;28;20667;-80
2021/06/30 08:31:04;;;;;;;0.30;0.30;;;19.70;99.90;;;;;;5055259;28;20218;-80
2021/06/30 08:33:29;;;;;;;0.30;0.30;;;19.90;99.90;;;;;;5071118;28;20196;-81
2021/06/30 08:35:55;;;;;;;0.20;0.20;;;20.10;99.90;;;;;;5072994;28;20522;-81
2021/06/30 08:38:22;;;;;;;0.20;0.20;;;20.40;99.90;;;;;;5062469;28;20188;-81
2021/06/30 08:40:52;;;;;;;0.40;0.40;;;20.40;99.90;;;;;;5073798;28;20231;-81
2021/06/30 08:43:18;;;;;;;0.67;0.67;;;20.40;99.90;;;;;;5049656;28;20267;-80
2021/06/30 08:45:43;;;;;;;0.10;0.10;;;20.50;99.90;;;;;;5065254;28;20185;-80
2021/06/30 08:48:09;;;;;;;0.13;0.13;;;20.70;99.90;;;;;;5049308;28;20220;-79
2021/06/30 08:50:43;;;;;;;0.27;0.27;;;20.60;99.90;;;;;;5071035;28;20725;-80
2021/06/30 08:53:15;;;;;;;0.20;0.20;;;20.50;99.90;;;;;;5074621;28;20223;-81
2021/06/30 08:55:45;;;;;;;0.17;0.17;;;20.40;99.90;;;;;;5045913;28;20178;-81
2021/06/30 08:58:12;;;;;;;0.20;0.20;;;20.40;99.90;;;;;;5053683;28;20189;-81
2021/06/30 09:00:40;;;;;;;0.37;0.37;;;20.50;99.90;;;;;;5053939;28;20192;-83
2021/06/30 09:03:08;;;;;;;0.20;0.20;;;20.60;99.90;;;;;;5071442;28;20227;-82
2021/06/30 09:05:38;;;;;;;0.23;0.23;;;20.60;99.90;;;;;;5052947;28;20275;-82
2021/06/30 09:08:04;;;;;;;0.37;0.37;;;20.50;99.90;;;;;;5051095;28;20224;-81
2021/06/30 09:10:34;;;;;;;0.33;0.33;;;20.60;99.90;;;;;;5068699;28;20185;-80
2021/06/30 09:13:01;;;;;;;0.17;0.17;;;20.90;99.90;;;;;;5071530;28;20181;-80
2021/06/30 09:15:34;;;;;;;0.30;0.30;;;20.90;99.90;;;;;;5053895;28;20193;-81
2021/06/30 09:18:22;;;;;;;0.17;0.17;;;21.00;99.90;;;;;;5052300;28;20191;-80
2021/06/30 09:20:48;;;;;;;0.20;0.20;;;21.00;99.90;;;;;;5069914;28;20198;-84
2021/06/30 09:23:14;;;;;;;0.40;0.40;;;20.80;99.90;;;;;;5049666;28;20219;-84
2021/06/30 09:25:42;;;;;;;0.30;0.30;;;20.90;99.90;;;;;;5055409;28;20190;-84
2021/06/30 09:28:26;;;;;;;0.20;0.20;;;20.90;99.90;;;;;;5072876;28;20209;-84
2021/06/30 09:31:06;;;;;;;0.37;0.30;;;20.90;99.90;;;;;;5054424;28;20279;-84
2021/06/30 09:33:52;;;;;;;0.33;0.33;;;21.10;99.90;;;;;;5067412;28;20334;-84
2021/06/30 09:36:19;;;;;;;0.33;0.33;;;21.20;99.90;;;;;;5056904;28;20654;-83
2021/06/30 09:38:45;;;;;;;0.60;0.60;;;21.30;99.90;;;;;;5047555;28;20200;-84
2021/06/30 09:41:29;;;;;;;2.57;0.20;;;21.30;99.90;;;;;;5049687;28;20189;-83
2021/06/30 09:44:07;;;;;;;1.20;0.50;;;21.40;99.90;;;;;;5052859;28;20205;-82
2021/06/30 09:46:34;;;;;;;0.47;0.47;;;21.60;99.90;;;;;;5067516;28;20283;-84
2021/06/30 09:49:27;;;;;;;0.20;0.20;;;21.40;99.90;;;;;;5056365;28;20185;-83
2021/06/30 09:52:17;;;;;;;0.30;0.30;;;21.00;99.90;;;;;;5070912;28;20196;-83
2021/06/30 09:54:46;;;;;;;0.20;0.20;;;20.80;99.90;;;;;;5054295;28;20213;-89
2021/06/30 09:57:14;;;;;;;0.20;0.20;;;20.80;99.90;;;;;;5069290;28;20271;-86
2021/06/30 09:59:46;;;;;;;0.63;0.27;;;20.90;99.90;;;;;;5053520;28;20190;-85
2021/06/30 10:02:17;;;;;;;0.27;0.27;;;21.20;99.90;;;;;;5071037;28;20185;-84
2021/06/30 10:04:58;;;;;;;0.37;0.20;;;21.20;99.90;;;;;;5055482;28;20213;-84
2021/06/30 10:07:26;;;;;;;0.20;0.20;;;21.40;99.90;;;;;;5053892;28;20208;-84
2021/06/30 10:09:51;;;;;;;0.20;0.20;;;21.40;99.90;;;;;;5056588;28;20177;-82
2021/06/30 10:12:22;;;;;;;0.40;0.20;;;21.60;99.90;;;;;;5074162;28;20188;-82
2021/06/30 10:14:48;;;;;;;0.27;0.27;;;21.50;99.90;;;;;;5077429;28;20614;-82
2021/06/30 10:17:15;;;;;;;0.17;0.17;;;21.40;99.90;;;;;;5075074;28;20191;-81
2021/06/30 10:19:42;;;;;;;0.40;0.20;;;21.40;99.90;;;;;;5075762;28;20193;-82
2021/06/30 10:22:10;;;;;;;0.30;0.30;;;21.00;99.90;;;;;;5059055;28;20189;-82
2021/06/30 10:24:37;;;;;;;0.80;0.40;;;20.90;99.90;;;;;;5059090;28;21640;-83
2021/06/30 10:27:03;;;;;;;0.30;0.30;;;21.10;99.90;;;;;;5054173;28;20221;-82
2021/06/30 10:29:32;;;;;;;0.30;0.30;;;21.40;99.90;;;;;;5059124;28;20198;-82
2021/06/30 10:32:08;;;;;;;0.77;0.43;;;21.70;99.90;;;;;;5055669;28;20193;-82
2021/06/30 10:34:37;;;;;;;0.33;0.33;;;22.10;99.90;;;;;;5049294;28;20752;-84
2021/06/30 10:37:15;;;;;;;0.20;0.20;;;22.00;99.90;;;;;;5058797;28;20300;-85
2021/06/30 10:39:44;;;;;;;0.30;0.30;;;22.00;99.90;;;;;;5053114;28;20189;-85
2021/06/30 10:42:24;;;;;;;0.10;0.10;;;22.40;99.90;;;;;;5071314;28;20200;-84
2021/06/30 10:44:52;;;;;;;0.37;0.37;;;22.30;99.90;;;;;;5069906;28;20207;-83
2021/06/30 10:47:42;;;;;;;0.40;0.30;;;22.20;99.90;;;;;;5053189;28;20250;-85
2021/06/30 10:50:17;;;;;;;0.20;0.20;;;22.00;99.90;;;;;;5070880;28;20269;-84
2021/06/30 10:52:43;;;;;;;0.23;0.23;;;21.50;99.90;;;;;;5068758;28;20196;-85
2021/06/30 10:55:31;;;;;;;0.20;0.20;;;21.50;99.90;;;;;;5047620;28;20201;-84
2021/06/30 11:01:05;;;;;;;0.40;0.40;;;21.50;99.90;;;;;;5070394;28;20189;-84
2021/06/30 11:03:49;;;;;;;0.40;0.40;;;21.50;99.90;;;;;;5068130;28;20603;-84
2021/06/30 11:06:17;;;;;;;0.40;0.40;;;21.50;99.90;;;;;;5064265;28;20201;-85
2021/06/30 11:09:03;;;;;;;1.10;1.10;;;21.60;99.90;;;;;;5070734;28;20181;-85
2021/06/30 11:11:37;;;;;;;0.43;0.43;;;21.80;99.90;;;;;;5066128;28;20249;-85
2021/06/30 11:14:11;;;;;;;0.83;0.20;;;21.90;99.90;;;;;;5070041;28;20749;-86
2021/06/30 11:16:49;;;;;;;0.30;0.30;;;21.90;99.90;;;;;;5068312;28;20196;-85
2021/06/30 11:19:17;;;;;;;0.40;0.40;;;21.90;99.90;;;;;;5060871;28;20180;-83
2021/06/30 11:21:57;;;;;;;0.27;0.27;;;22.00;99.90;;;;;;5067632;28;20211;-85
2021/06/30 11:24:49;;;;;;;0.40;0.40;;;22.10;99.90;;;;;;5055102;28;20204;-85
2021/06/30 11:27:32;;;;;;;0.43;0.43;;;21.90;99.90;;;;;;5048036;28;20213;-84
2021/06/30 11:30:02;;;;;;;0.40;0.40;;;21.70;99.90;;;;;;5068812;28;20191;-85
2021/06/30 11:32:42;;;;;;;0.33;0.33;;;21.60;99.90;;;;;;5044662;28;20646;-84
2021/06/30 11:35:15;;;;;;;0.20;0.20;;;21.70;99.90;;;;;;5065588;28;20687;-85
2021/06/30 11:37:42;;;;;;;0.27;0.27;;;21.60;99.90;;;;;;5043479;28;20200;-84
2021/06/30 11:40:21;;;;;;;0.23;0.20;;;21.70;99.90;;;;;;5049816;28;20612;-85
2021/06/30 11:42:50;;;;;;;0.30;0.30;;;21.60;99.90;;;;;;5069775;28;20211;-84
2021/06/30 11:45:23;;;;;;;0.23;0.20;;;21.60;99.90;;;;;;5059292;28;20212;-84
2021/06/30 11:47:51;;;;;;;0.40;0.40;;;21.70;99.90;;;;;;5069143;28;20560;-83
2021/06/30 11:50:18;;;;;;;0.33;0.33;;;21.80;99.90;;;;;;5066887;28;20180;-85
2021/06/30 11:52:44;;;;;;;0.20;0.20;;;22.00;99.90;;;;;;5061401;28;20216;-84
2021/06/30 11:55:11;;;;;;;0.30;0.20;;;22.40;99.90;;;;;;5051075;28;20295;-85
2021/06/30 11:58:00;;;;;;;0.30;0.30;;;22.40;99.90;;;;;;5069851;28;20185;-84
2021/06/30 12:00:28;;;;;;;0.40;0.40;;;22.60;99.90;;;;;;5068554;28;20242;-85
2021/06/30 12:02:57;;;;;;;0.40;0.40;;;22.90;99.90;;;;;;5069767;28;20653;-85
2021/06/30 12:05:26;;;;;;;0.20;0.20;;;23.00;99.90;;;;;;5059110;28;20204;-84
2021/06/30 12:07:56;;;;;;;0.20;0.20;;;22.80;99.90;;;;;;5060832;28;20211;-85
2021/06/30 12:10:30;;;;;;;0.30;0.30;;;23.00;99.90;;;;;;5051011;28;20185;-84
2021/06/30 12:12:57;;;;;;;0.40;0.40;;;23.00;99.90;;;;;;5069335;28;20181;-85
2021/06/30 12:15:23;;;;;;;0.20;0.20;;;23.30;99.90;;;;;;5052424;28;20188;-85
2021/06/30 12:17:52;;;;;;;0.33;0.33;;;23.40;99.90;;;;;;5070312;28;20618;-85
2021/06/30 12:20:20;;;;;;;0.63;0.50;;;23.40;99.90;;;;;;5080121;28;20267;-84
2021/06/30 12:22:46;;;;;;;1.47;0.60;;;23.30;99.90;;;;;;5053350;28;20199;-85
2021/06/30 12:25:21;;;;;;;0.43;0.43;;;23.00;99.90;;;;;;5050931;28;20209;-85
2021/06/30 12:28:02;;;;;;;1.23;0.60;;;22.90;99.90;;;;;;5069432;28;20208;-85
2021/06/30 12:30:36;;;;;;;0.63;0.63;;;22.80;99.90;;;;;;5052605;28;20180;-85
2021/06/30 12:33:11;;;;;;;0.30;0.30;;;22.90;99.90;;;;;;5048963;28;20192;-84
2021/06/30 12:35:48;;;;;;;0.40;0.40;;;23.10;99.90;;;;;;5052434;28;20531;-86
2021/06/30 12:38:31;;;;;;;0.30;0.30;;;23.20;99.90;;;;;;5053368;28;20192;-85
2021/06/30 12:41:10;;;;;;;0.30;0.30;;;23.10;99.90;;;;;;5066440;28;20235;-85
2021/06/30 12:43:36;;;;;;;0.20;0.20;;;22.90;99.90;;;;;;5053036;28;20212;-85
2021/06/30 12:46:02;;;;;;;0.30;0.30;;;22.90;99.90;;;;;;5071973;28;20191;-85
2021/06/30 12:48:34;;;;;;;0.37;0.37;;;22.90;99.90;;;;;;5051903;28;20178;-85
2021/06/30 12:51:11;;;;;;;0.20;0.20;;;23.10;99.90;;;;;;5046370;28;20219;-85
2021/06/30 12:53:39;;;;;;;0.40;0.30;;;23.30;99.90;;;;;;5051682;28;20270;-85
2021/06/30 12:56:07;;;;;;;0.33;0.30;;;23.40;99.90;;;;;;5068400;28;20189;-85